Terminal Aerodrome Forecast
Issued by NWS

Home | Current Version | Previous Version | Text Only | Print | Product List | Glossary On
Versions: 1 2 3 4 5 6 7 8 9 10 11 12 13
000
FTUS45 KREV 192300
TAFMMH
TAF
KMMH 192329Z 2000/2024 23014KT P6SM VCTS SCT100CB BKN180
     FM200300 28009KT P6SM FEW150
     FM202100 11006KT P6SM VCTS SCT080CB BKN180=

USA.gov is the U.S. government's official web portal to all federal, state and local government web resources and services.